createdAt,value
2023-01-28T00:02:00.079Z,61.30
2023-01-28T00:05:02.441Z,61.33
2023-01-28T00:08:04.919Z,61.12
2023-01-28T00:11:07.714Z,61.09
2023-01-28T00:14:12.030Z,60.95
2023-01-28T00:17:14.739Z,60.96
2023-01-28T00:20:17.000Z,60.85
2023-01-28T00:23:18.647Z,60.91
2023-01-28T00:26:21.049Z,60.86
2023-01-28T00:29:23.369Z,60.91
2023-01-28T00:32:25.174Z,60.94
2023-01-28T00:35:28.059Z,60.89
2023-01-28T00:38:30.070Z,61.01
2023-01-28T00:41:32.363Z,60.89
2023-01-28T00:44:33.957Z,60.79
2023-01-28T00:47:38.374Z,60.54
2023-01-28T00:50:41.596Z,60.80
2023-01-28T00:53:44.183Z,60.59
2023-01-28T00:56:46.583Z,60.57
2023-01-28T00:59:48.714Z,60.55
2023-01-28T01:02:50.529Z,60.51
2023-01-28T01:05:52.236Z,60.60
2023-01-28T01:08:53.870Z,60.64
2023-01-28T01:11:55.548Z,60.72
2023-01-28T01:14:57.935Z,60.73
2023-01-28T01:18:00.293Z,60.74
2023-01-28T01:21:02.470Z,60.81
2023-01-28T01:24:04.493Z,60.81
2023-01-28T01:27:06.915Z,60.72
2023-01-28T01:30:11.651Z,60.72
2023-01-28T01:33:13.403Z,60.77
2023-01-28T01:36:15.600Z,60.82
2023-01-28T01:39:17.289Z,60.81
2023-01-28T01:42:19.205Z,60.84
2023-01-28T01:45:21.065Z,60.86
2023-01-28T01:48:28.870Z,61.01
2023-01-28T01:51:33.345Z,61.27
2023-01-28T01:54:36.796Z,61.52
2023-01-28T01:57:38.874Z,61.81
2023-01-28T02:00:41.558Z,62.06
2023-01-28T02:04:20.684Z,62.18
2023-01-28T02:07:22.390Z,62.07
2023-01-28T02:10:25.032Z,62.03
2023-01-28T02:13:35.420Z,61.96
2023-01-28T02:16:37.104Z,62.05
2023-01-28T02:20:02.841Z,62.09
2023-01-28T02:23:23.386Z,62.11
2023-01-28T02:26:43.371Z,62.25
2023-01-28T02:30:09.854Z,61.97
2023-01-28T02:33:56.327Z,62.13
2023-01-28T02:36:58.596Z,62.08
2023-01-28T02:40:07.124Z,62.03
2023-01-28T02:43:08.883Z,61.98
2023-01-28T02:47:06.453Z,62.08
2023-01-28T02:50:18.148Z,61.81
2023-01-28T02:53:56.163Z,61.91
2023-01-28T02:57:29.826Z,62.07
2023-01-28T03:00:42.485Z,61.91
2023-01-28T03:04:03.979Z,62.08
2023-01-28T03:07:08.447Z,61.85
2023-01-28T03:10:16.659Z,61.80
2023-01-28T03:13:37.061Z,61.94
2023-01-28T03:16:57.379Z,62.01
2023-01-28T03:20:17.959Z,62.26
2023-01-28T03:23:42.443Z,62.46
2023-01-28T03:27:22.709Z,62.51
2023-01-28T03:31:23.582Z,62.37
2023-01-28T03:34:46.314Z,62.21
2023-01-28T03:37:48.172Z,62.24
2023-01-28T03:41:01.015Z,62.19
2023-01-28T03:44:21.703Z,62.12
2023-01-28T03:47:25.935Z,62.14
2023-01-28T03:50:27.889Z,62.12
2023-01-28T03:53:32.326Z,62.16
2023-01-28T03:56:37.649Z,62.16
2023-01-28T03:59:39.418Z,62.31
2023-01-28T04:02:41.818Z,62.33
2023-01-28T04:05:48.163Z,62.36
2023-01-28T04:08:53.738Z,62.34
2023-01-28T04:12:01.210Z,62.49
2023-01-28T04:15:16.080Z,62.52
2023-01-28T04:18:21.955Z,62.59
2023-01-28T04:21:25.260Z,62.52
2023-01-28T04:24:27.089Z,62.72
2023-01-28T04:27:29.043Z,62.83
2023-01-28T04:30:35.922Z,62.84
2023-01-28T04:33:43.857Z,62.67
2023-01-28T04:36:59.550Z,62.89
2023-01-28T04:40:24.346Z,62.89
2023-01-28T04:43:31.225Z,62.97
2023-01-28T04:46:58.485Z,63.33
2023-01-28T04:50:17.198Z,63.53
2023-01-28T04:53:34.584Z,63.54
2023-01-28T04:56:42.138Z,63.57
2023-01-28T04:59:44.449Z,63.50
2023-01-28T05:02:46.822Z,63.57
2023-01-28T05:05:48.688Z,63.42
2023-01-28T05:09:16.924Z,63.33
2023-01-28T05:12:21.085Z,63.25
2023-01-28T05:15:23.264Z,63.08
2023-01-28T05:18:26.459Z,63.05
2023-01-28T05:21:41.437Z,63.11
2023-01-28T05:24:52.812Z,63.10
2023-01-28T05:27:54.685Z,62.98
2023-01-28T05:30:56.482Z,62.91
2023-01-28T05:33:58.436Z,63.11
2023-01-28T05:37:00.170Z,62.96
2023-01-28T05:40:07.912Z,62.92
2023-01-28T05:43:09.633Z,63.01
2023-01-28T05:46:18.987Z,63.05
2023-01-28T05:49:46.668Z,63.06
2023-01-28T05:53:07.448Z,63.04
2023-01-28T05:56:10.752Z,63.12
2023-01-28T05:59:14.057Z,63.66
2023-01-28T06:02:17.886Z,63.71
2023-01-28T06:05:20.386Z,64.18
2023-01-28T06:08:22.609Z,64.29
2023-01-28T06:11:24.369Z,64.28
2023-01-28T06:14:31.371Z,64.19
2023-01-28T06:17:59.304Z,64.08
2023-01-28T06:21:04.070Z,64.25
2023-01-28T06:24:06.091Z,64.24
2023-01-28T06:27:07.894Z,64.31
2023-01-28T06:30:10.478Z,64.08
2023-01-28T06:33:12.158Z,64.19
2023-01-28T06:36:13.998Z,64.09
2023-01-28T06:39:15.764Z,64.10
2023-01-28T06:42:17.412Z,64.13
2023-01-28T06:45:19.111Z,64.20
2023-01-28T06:48:21.267Z,64.13
2023-01-28T06:51:23.011Z,64.23
2023-01-28T06:54:24.776Z,64.30
2023-01-28T06:57:26.434Z,64.58
2023-01-28T07:00:28.203Z,64.30
2023-01-28T07:03:30.036Z,64.41
2023-01-28T07:06:31.725Z,64.76
2023-01-28T07:09:33.395Z,64.85
2023-01-28T07:12:34.989Z,65.10
2023-01-28T07:15:36.951Z,65.41
2023-01-28T07:18:38.640Z,65.32
2023-01-28T07:21:40.321Z,65.60
2023-01-28T07:24:41.946Z,65.73
2023-01-28T07:27:53.889Z,65.57
2023-01-28T07:30:55.679Z,65.75
2023-01-28T07:33:57.408Z,65.76
2023-01-28T07:36:59.140Z,65.75
2023-01-28T07:40:00.834Z,65.55
2023-01-28T07:43:02.432Z,65.69
2023-01-28T07:46:11.423Z,65.53
2023-01-28T07:49:14.412Z,65.67
2023-01-28T07:52:16.106Z,65.62
2023-01-28T07:55:18.363Z,65.77
2023-01-28T07:58:20.125Z,65.68
2023-01-28T08:01:21.779Z,65.63
2023-01-28T08:04:23.672Z,65.86
2023-01-28T08:07:25.787Z,66.01
2023-01-28T08:10:27.519Z,66.22
2023-01-28T08:13:29.228Z,66.47
2023-01-28T08:16:31.331Z,66.55
2023-01-28T08:19:33.060Z,66.52
2023-01-28T08:22:34.694Z,66.57
2023-01-28T08:25:36.681Z,66.51
2023-01-28T08:28:38.442Z,66.55
2023-01-28T08:31:40.119Z,66.38
2023-01-28T08:34:41.868Z,66.35
2023-01-28T08:37:43.578Z,66.00
2023-01-28T08:40:45.289Z,65.83
2023-01-28T08:43:47.478Z,65.78
2023-01-28T08:46:49.083Z,65.63
2023-01-28T08:49:52.165Z,65.40
2023-01-28T08:52:58.480Z,65.30
2023-01-28T08:56:00.113Z,65.17
2023-01-28T08:59:01.680Z,65.04
2023-01-28T09:02:03.335Z,64.92
2023-01-28T09:05:06.223Z,64.79
2023-01-28T09:08:13.745Z,64.40
2023-01-28T09:11:15.403Z,64.28
2023-01-28T09:14:23.002Z,64.21
2023-01-28T09:17:31.859Z,63.98
2023-01-28T09:20:49.306Z,63.84
2023-01-28T09:23:50.924Z,63.84
2023-01-28T09:26:52.682Z,63.60
2023-01-28T09:29:54.351Z,63.50
2023-01-28T09:32:58.191Z,63.18
2023-01-28T09:36:01.350Z,63.04
2023-01-28T09:39:03.519Z,62.90
2023-01-28T09:42:51.763Z,62.68
2023-01-28T09:46:01.148Z,62.34
2023-01-28T09:49:10.143Z,62.28
2023-01-28T09:52:17.593Z,61.97
2023-01-28T09:55:40.195Z,61.61
2023-01-28T09:58:43.333Z,61.29
2023-01-28T10:01:44.986Z,61.26
2023-01-28T10:05:25.624Z,61.08
2023-01-28T10:08:42.538Z,60.77
2023-01-28T10:11:47.184Z,60.63
2023-01-28T10:15:11.045Z,60.50
2023-01-28T10:18:17.478Z,60.24
2023-01-28T10:21:50.618Z,60.18
2023-01-28T10:25:01.958Z,60.09
2023-01-28T10:28:15.039Z,59.90
2023-01-28T10:31:16.756Z,59.74
2023-01-28T10:34:20.102Z,59.64
2023-01-28T10:37:22.380Z,59.54
2023-01-28T10:40:24.020Z,59.44
2023-01-28T10:43:29.555Z,59.29
2023-01-28T10:46:34.314Z,59.18
2023-01-28T10:49:41.924Z,59.08
2023-01-28T10:53:04.152Z,58.89
2023-01-28T10:56:09.088Z,58.81
2023-01-28T10:59:22.659Z,58.56
2023-01-28T11:02:24.407Z,58.55
2023-01-28T11:05:28.543Z,58.26
2023-01-28T11:08:31.326Z,58.07
2023-01-28T11:11:33.058Z,57.87
2023-01-28T11:14:34.771Z,57.77
2023-01-28T11:17:38.810Z,57.67
2023-01-28T11:20:43.817Z,57.37
2023-01-28T11:23:59.403Z,57.12
2023-01-28T11:27:11.660Z,56.96
2023-01-28T11:30:25.407Z,56.68
2023-01-28T11:33:34.330Z,56.41
2023-01-28T11:36:36.019Z,56.30
2023-01-28T11:39:37.796Z,56.01
2023-01-28T11:42:39.489Z,55.75
2023-01-28T11:46:16.121Z,55.52
2023-01-28T11:49:54.253Z,55.48
2023-01-28T11:53:07.065Z,55.24
2023-01-28T11:56:37.181Z,55.11
2023-01-28T11:59:54.291Z,54.48
2023-01-28T12:03:11.812Z,54.11
2023-01-28T12:06:28.937Z,53.83
2023-01-28T12:09:47.704Z,53.67
2023-01-28T12:13:07.529Z,53.35
2023-01-28T12:16:15.003Z,53.01
2023-01-28T12:19:20.322Z,52.78
2023-01-28T12:22:34.177Z,52.32
2023-01-28T12:25:55.353Z,52.10
2023-01-28T12:29:07.081Z,51.92
2023-01-28T12:32:24.614Z,51.95
2023-01-28T12:35:33.654Z,51.83
2023-01-28T12:38:48.968Z,51.64
2023-01-28T12:41:54.411Z,51.47
2023-01-28T12:45:02.371Z,51.29
2023-01-28T12:48:33.213Z,50.97
2023-01-28T12:51:46.818Z,50.78
2023-01-28T12:55:03.473Z,50.82
2023-01-28T12:58:09.451Z,50.56
2023-01-28T13:01:14.480Z,50.43
2023-01-28T13:04:41.355Z,50.37
2023-01-28T13:08:18.291Z,50.37
2023-01-28T13:11:20.712Z,50.21
2023-01-28T13:14:29.715Z,50.11
2023-01-28T13:17:32.711Z,50.02
2023-01-28T13:20:38.767Z,49.88
2023-01-28T13:23:46.228Z,49.78
2023-01-28T13:26:49.517Z,49.67
2023-01-28T13:30:05.854Z,49.70
2023-01-28T13:33:28.548Z,49.65
2023-01-28T13:36:47.108Z,49.56
2023-01-28T13:39:57.304Z,49.49
2023-01-28T13:43:07.507Z,49.42
2023-01-28T13:46:26.339Z,49.41
2023-01-28T13:49:37.953Z,49.19
2023-01-28T13:53:03.170Z,49.19
2023-01-28T13:56:09.296Z,49.19
2023-01-28T13:59:17.356Z,49.10
2023-01-28T14:02:42.773Z,49.05
2023-01-28T14:06:08.578Z,49.07
2023-01-28T14:09:50.650Z,48.77
2023-01-28T14:12:52.435Z,48.67
2023-01-28T14:15:54.045Z,48.39
2023-01-28T14:18:57.876Z,48.59
2023-01-28T14:21:59.722Z,48.38
2023-01-28T14:25:02.215Z,48.53
2023-01-28T14:28:05.653Z,48.40
2023-01-28T14:31:13.527Z,48.33
2023-01-28T14:34:21.342Z,48.48
2023-01-28T14:37:26.132Z,48.45
2023-01-28T14:40:29.115Z,48.28
2023-01-28T14:43:31.475Z,48.33
2023-01-28T14:46:49.356Z,48.14
2023-01-28T14:49:54.000Z,48.05
2023-01-28T14:53:21.793Z,47.93
2023-01-28T14:57:11.944Z,47.86
2023-01-28T15:00:29.971Z,47.66
2023-01-28T15:03:32.575Z,47.62
2023-01-28T15:06:36.017Z,47.55
2023-01-28T15:09:37.784Z,47.53
2023-01-28T15:12:41.653Z,47.67
2023-01-28T15:15:47.541Z,47.64
2023-01-28T15:18:53.181Z,47.69
2023-01-28T15:21:56.340Z,47.44
2023-01-28T15:24:58.090Z,47.44
2023-01-28T15:28:01.426Z,47.35
2023-01-28T15:31:03.691Z,47.15
2023-01-28T15:34:12.775Z,47.23
2023-01-28T15:37:14.801Z,47.34
2023-01-28T15:40:22.295Z,47.35
2023-01-28T15:43:30.918Z,47.23
2023-01-28T15:46:32.811Z,47.28
2023-01-28T15:49:37.101Z,47.18
2023-01-28T15:52:41.403Z,47.24
2023-01-28T15:55:46.166Z,47.27
2023-01-28T15:58:47.849Z,47.24
2023-01-28T16:01:49.723Z,47.26
2023-01-28T16:04:57.612Z,47.24
2023-01-28T16:08:03.361Z,47.28
2023-01-28T16:11:05.378Z,47.33
2023-01-28T16:14:07.391Z,47.38
2023-01-28T16:17:09.504Z,47.43
2023-01-28T16:20:29.110Z,47.49
2023-01-28T16:23:30.702Z,47.62
2023-01-28T16:26:34.474Z,47.65
2023-01-28T16:29:36.267Z,47.71
2023-01-28T16:32:39.208Z,47.81
2023-01-28T16:36:03.645Z,47.92
2023-01-28T16:39:02.448Z,48.07
2023-01-28T16:42:04.129Z,48.22
2023-01-28T16:45:06.461Z,48.34
2023-01-28T16:48:08.610Z,48.40
2023-01-28T16:51:18.379Z,48.49
2023-01-28T16:54:20.035Z,48.74
2023-01-28T16:57:22.668Z,48.94
2023-01-28T17:00:26.975Z,49.16
2023-01-28T17:03:46.338Z,49.40
2023-01-28T17:06:48.091Z,49.67
2023-01-28T17:09:50.020Z,49.97
2023-01-28T17:12:54.513Z,50.23
2023-01-28T17:15:56.245Z,50.48
2023-01-28T17:18:57.907Z,50.73
2023-01-28T17:21:59.882Z,50.73
2023-01-28T17:25:01.589Z,51.10
2023-01-28T17:28:03.404Z,51.23
2023-01-28T17:31:13.681Z,51.47
2023-01-28T17:34:16.239Z,51.70
2023-01-28T17:37:18.082Z,51.85
2023-01-28T17:40:19.905Z,52.06
2023-01-28T17:43:21.537Z,52.24
2023-01-28T17:46:24.948Z,52.39
2023-01-28T17:49:26.629Z,52.59
2023-01-28T17:52:28.707Z,52.65
2023-01-28T17:55:30.524Z,52.83
2023-01-28T17:58:32.572Z,52.89
2023-01-28T18:01:35.791Z,53.03
2023-01-28T18:04:41.618Z,53.15
2023-01-28T18:07:44.069Z,53.46
2023-01-28T18:10:45.861Z,53.46
2023-01-28T18:13:47.595Z,53.56
2023-01-28T18:16:49.244Z,53.81
2023-01-28T18:19:50.909Z,53.86
2023-01-28T18:22:52.565Z,53.85
2023-01-28T18:25:58.006Z,54.10
2023-01-28T18:28:59.779Z,54.17
2023-01-28T18:32:01.421Z,54.36
2023-01-28T18:35:03.177Z,54.45
2023-01-28T18:38:04.816Z,54.64
2023-01-28T18:41:06.512Z,54.74
2023-01-28T18:44:09.870Z,54.72
2023-01-28T18:47:11.648Z,54.90
2023-01-28T18:50:13.355Z,54.92
2023-01-28T18:53:15.045Z,55.02
2023-01-28T18:56:17.141Z,55.12
2023-01-28T18:59:19.069Z,55.32
2023-01-28T19:02:20.695Z,55.45
2023-01-28T19:05:22.353Z,55.56
2023-01-28T19:08:23.987Z,55.56
2023-01-28T19:11:27.351Z,55.79
2023-01-28T19:14:29.077Z,56.01
2023-01-28T19:17:30.768Z,56.02
2023-01-28T19:20:32.491Z,56.34
2023-01-28T19:23:48.933Z,56.22
2023-01-28T19:26:51.206Z,56.41
2023-01-28T19:29:52.861Z,56.48
2023-01-28T19:32:54.523Z,56.41
2023-01-28T19:35:58.130Z,56.44
2023-01-28T19:39:01.551Z,56.51
2023-01-28T19:42:03.347Z,56.68
2023-01-28T19:45:06.180Z,56.84
2023-01-28T19:48:07.850Z,57.14
2023-01-28T19:51:10.481Z,57.65
2023-01-28T19:54:12.129Z,57.99
2023-01-28T19:57:13.819Z,58.09
2023-01-28T20:00:16.015Z,58.30
2023-01-28T20:03:17.677Z,58.19
2023-01-28T20:06:19.654Z,58.28
2023-01-28T20:09:22.609Z,58.43
2023-01-28T20:12:24.269Z,58.21
2023-01-28T20:15:26.147Z,58.36
2023-01-28T20:18:28.022Z,58.41
2023-01-28T20:21:31.545Z,58.40
2023-01-28T20:24:33.327Z,58.64
2023-01-28T20:27:35.255Z,58.68
2023-01-28T20:30:37.170Z,58.86
2023-01-28T20:33:39.907Z,58.85
2023-01-28T20:36:41.801Z,58.96
2023-01-28T20:39:43.973Z,58.93
2023-01-28T20:42:45.566Z,59.08
2023-01-28T20:45:47.260Z,59.04
2023-01-28T20:48:49.406Z,59.21
2023-01-28T20:51:51.039Z,59.28
2023-01-28T20:54:52.861Z,59.41
2023-01-28T20:57:54.514Z,59.46
2023-01-28T21:00:56.432Z,59.44
2023-01-28T21:03:58.257Z,59.61
2023-01-28T21:07:00.011Z,59.46
2023-01-28T21:10:02.619Z,59.85
2023-01-28T21:13:04.459Z,60.21
2023-01-28T21:16:06.456Z,60.58
2023-01-28T21:19:08.235Z,60.69
2023-01-28T21:22:10.044Z,60.89
2023-01-28T21:25:11.707Z,60.65
2023-01-28T21:28:14.202Z,60.70
2023-01-28T21:31:18.277Z,60.61
2023-01-28T21:34:19.911Z,60.61
2023-01-28T21:37:22.749Z,60.73
2023-01-28T21:40:24.525Z,60.85
2023-01-28T21:43:26.273Z,61.05
2023-01-28T21:46:30.577Z,61.04
2023-01-28T21:49:32.457Z,61.04
2023-01-28T21:52:34.123Z,61.23
2023-01-28T21:55:35.725Z,61.45
2023-01-28T21:58:56.848Z,61.30
2023-01-28T22:02:09.316Z,61.37
2023-01-28T22:05:10.979Z,61.29
2023-01-28T22:08:12.639Z,61.40
2023-01-28T22:11:14.600Z,61.78
2023-01-28T22:14:16.481Z,61.90
2023-01-28T22:17:19.357Z,62.27
2023-01-28T22:20:21.208Z,62.54
2023-01-28T22:23:22.871Z,62.70
2023-01-28T22:26:24.554Z,62.86
2023-01-28T22:29:26.257Z,62.94
2023-01-28T22:32:27.953Z,62.84
2023-01-28T22:35:29.820Z,62.77
2023-01-28T22:38:31.474Z,62.92
2023-01-28T22:41:33.558Z,62.86
2023-01-28T22:44:35.405Z,62.71
2023-01-28T22:47:37.269Z,62.74
2023-01-28T22:50:38.939Z,62.46
2023-01-28T22:53:40.692Z,62.68
2023-01-28T22:56:42.382Z,62.30
2023-01-28T22:59:59.305Z,62.42
2023-01-28T23:03:01.993Z,62.36
2023-01-28T23:06:05.284Z,62.32
2023-01-28T23:09:07.029Z,62.46
2023-01-28T23:12:08.774Z,62.32
2023-01-28T23:15:29.583Z,62.47
2023-01-28T23:18:50.399Z,62.38
2023-01-28T23:22:11.005Z,62.63
2023-01-28T23:25:13.044Z,62.88
2023-01-28T23:28:15.554Z,62.89
2023-01-28T23:31:17.423Z,63.02
2023-01-28T23:34:19.343Z,62.87
2023-01-28T23:37:21.138Z,62.61
2023-01-28T23:40:24.770Z,62.56
2023-01-28T23:43:26.471Z,62.66
2023-01-28T23:46:38.896Z,62.33
2023-01-28T23:49:41.608Z,62.38
2023-01-28T23:52:43.260Z,62.35
2023-01-28T23:55:45.020Z,62.11
2023-01-28T23:58:46.694Z,62.29
